EGLG weather

CLOSED Panshanger Aerodrome
Hertford, England, United Kingdom

Public forecast

Using degrees Celsius for public forecast. Weather courtesy of forecast.io.

Closest aviation weather report (METAR) to Panshanger Aerodrome

Closest report is London Luton Airport, 8.9 nm (16.5 km) WNW. Retrieved 2020/02/27 01:20 UTC (30 minutes ago):

EGGW 270120Z AUTO 19004KT 150V220 9999 NCD 02/00 Q1002

Closest aviation forecast (TAF) to Panshanger Aerodrome

Closest forecast is London Luton Airport, 8.9 nm (16.5 km) WNW. Retrieved 2020-02-27 00:00 UTC (2 hours ago):

TAF EGGW 262257Z 2700/2724 21006KT 9999 SCT030 BECMG 2701/2704 6000 -RA BKN008 PROB30 TEMPO 2703/2706 4000 -RASN BKN004 BECMG 2706/2709 2000 RASN BR FEW001 BKN003 TEMPO 2706/2712 0800 SN BKN001 BECMG 2709/2712 30014KT BECMG 2712/2714 9999 NSW FEW030 TEMPO 2714/2718 31018G28KT BECMG 2721/2724 24004KT